Time;durP1;ratioP1;P1;durP2;ratioP2;P2;SDS_P1;SDS_P2;PMS_P1;PMS_P2;Temp;Humidity;BMP_temperature;BMP_pressure;BME280_temperature;BME280_humidity;BME280_pressure;Samples;Min_cycle;Max_cycle;Signal;HPM_P1;HPM_P2
2023/12/17 00:00:41;;;;;;;;;;;2.10;99.90;;;0.68;100.00;100150.88;5018988;28;1364;-68
2023/12/17 00:03:08;;;;;;;;;;;1.90;99.90;;;0.79;100.00;100154.69;4988069;28;1301;-68
2023/12/17 00:05:47;;;;;;;;;;;1.90;99.90;;;0.92;100.00;100158.59;5014696;28;1323;-68
2023/12/17 00:08:19;;;;;;;;;;;1.90;99.90;;;1.07;100.00;100153.16;4986681;28;1365;-68
2023/12/17 00:10:51;;;;;;;;;;;1.90;99.90;;;1.17;100.00;100155.25;4988764;28;1409;-67
2023/12/17 00:13:18;;;;;;;;;;;2.00;99.90;;;1.14;100.00;100150.00;4988953;28;1375;-68
2023/12/17 00:15:45;;;;;;;;;;;2.10;99.90;;;1.07;100.00;100148.06;4985733;28;1417;-68
2023/12/17 00:18:12;;;;;;;;;;;2.10;99.90;;;0.80;100.00;100153.91;4983398;28;1910;-67
2023/12/17 00:20:40;;;;;;;;;;;1.90;99.90;;;0.48;100.00;100143.31;4979545;28;1437;-69
2023/12/17 00:23:07;;;;;;;;;;;1.70;99.90;;;0.53;100.00;100131.59;4980700;28;1511;-68
2023/12/17 00:25:34;;;;;;;;;;;1.60;99.90;;;0.48;100.00;100127.09;4981733;28;1463;-68
2023/12/17 00:28:01;;;;;;;;;;;1.50;99.90;;;0.56;100.00;100135.94;4987193;28;1374;-68
2023/12/17 00:30:27;;;;;;;;;;;1.50;99.90;;;0.52;100.00;100132.38;4987851;28;1390;-68
2023/12/17 00:32:54;;;;;;;;;;;1.50;99.90;;;0.70;100.00;100137.31;4986317;28;1840;-67
2023/12/17 00:35:22;;;;;;;;;;;1.50;99.90;;;0.73;100.00;100139.13;4985973;28;1316;-68
2023/12/17 00:37:48;;;;;;;;;;;1.60;99.90;;;0.70;100.00;100136.47;4990633;28;1907;-68
2023/12/17 00:40:15;;;;;;;;;;;1.70;99.90;;;0.69;100.00;100130.47;4988528;28;1663;-67
2023/12/17 00:42:43;;;;;;;;;;;1.70;99.90;;;0.66;100.00;100137.16;4987972;28;1300;-67
2023/12/17 00:45:09;;;;;;;;;;;1.60;99.90;;;0.55;100.00;100129.09;4987242;28;1319;-67
2023/12/17 00:47:36;;;;;;;;;;;1.50;99.90;;;0.22;100.00;100121.84;4985812;28;1367;-68
2023/12/17 00:50:04;;;;;;;;;;;1.30;99.90;;;0.12;100.00;100115.50;4990377;28;1227;-68
2023/12/17 00:52:31;;;;;;;;;;;1.20;99.90;;;-0.16;100.00;100118.63;4987139;28;1446;-69
2023/12/17 00:54:58;;;;;;;;;;;1.00;99.90;;;-0.05;100.00;100104.59;5016950;28;1368;-68
2023/12/17 00:57:26;;;;;;;;;;;0.90;99.90;;;-0.08;100.00;100107.03;5001856;28;1282;-68
2023/12/17 00:59:52;;;;;;;;;;;0.80;99.90;;;-0.07;100.00;100095.13;4987154;28;1934;-68
2023/12/17 01:02:19;;;;;;;;;;;0.70;99.90;;;-0.14;100.00;100090.59;4986609;28;1378;-68
2023/12/17 01:04:46;;;;;;;;;;;0.60;99.90;;;-0.21;100.00;100092.03;4988249;28;1267;-67
2023/12/17 01:07:13;;;;;;;;;;;0.60;99.90;;;-0.23;100.00;100093.63;4987999;28;1677;-67
2023/12/17 01:09:40;;;;;;;;;;;0.50;99.90;;;-0.27;100.00;100095.22;5019202;28;1341;-68
2023/12/17 01:12:07;;;;;;;;;;;0.70;99.90;;;-0.22;100.00;100095.41;4986573;28;1305;-68
2023/12/17 01:14:34;;;;;;;;;;;0.50;99.90;;;-0.17;100.00;100095.59;4983838;28;1343;-68
2023/12/17 01:17:03;;;;;;;;;;;0.50;99.90;;;-0.28;100.00;100102.78;4986316;28;1308;-68
2023/12/17 01:19:33;;;;;;;;;;;0.40;99.90;;;-0.51;100.00;100102.69;4988553;28;1993;-67
2023/12/17 01:22:02;;;;;;;;;;;0.40;99.90;;;-0.44;100.00;100109.78;4987105;28;1431;-69
2023/12/17 01:24:29;;;;;;;;;;;0.30;99.90;;;-0.57;100.00;100104.13;4984926;28;1391;-67
2023/12/17 01:26:55;;;;;;;;;;;0.30;99.90;;;-0.68;100.00;100113.88;4985290;28;1457;-67
2023/12/17 01:29:22;;;;;;;;;;;0.40;99.90;;;-0.58;100.00;100117.69;4987238;28;1526;-68
2023/12/17 01:31:49;;;;;;;;;;;0.40;99.90;;;-0.64;100.00;100116.63;4986924;28;1394;-67
2023/12/17 01:34:20;;;;;;;;;;;0.30;99.90;;;-0.70;100.00;100108.72;4987619;28;1309;-68
2023/12/17 01:36:47;;;;;;;;;;;0.40;99.90;;;-0.66;100.00;100125.03;4986984;28;1082;-67
2023/12/17 01:39:14;;;;;;;;;;;0.50;99.90;;;-0.47;100.00;100129.22;5015352;28;1914;-68
2023/12/17 01:41:41;;;;;;;;;;;0.60;99.90;;;-0.35;100.00;100116.97;5017103;28;1396;-68
2023/12/17 01:44:08;;;;;;;;;;;0.80;99.90;;;-0.36;100.00;100114.38;4986288;28;1347;-68
2023/12/17 01:46:34;;;;;;;;;;;0.70;99.90;;;-0.19;100.00;100120.16;4970743;28;1348;-68
2023/12/17 01:49:02;;;;;;;;;;;0.80;99.90;;;-0.09;100.00;100119.72;4990458;28;1054;-68
2023/12/17 01:51:31;;;;;;;;;;;0.90;99.90;;;-0.02;100.00;100125.16;5016111;28;1389;-67
2023/12/17 01:53:59;;;;;;;;;;;0.90;99.90;;;0.09;100.00;100130.72;4987274;28;1489;-68
2023/12/17 01:56:26;;;;;;;;;;;1.10;99.90;;;0.05;100.00;100139.06;4986632;28;1565;-69
2023/12/17 01:58:53;;;;;;;;;;;1.10;99.90;;;-0.16;100.00;100135.59;5017767;28;1906;-67
2023/12/17 02:01:22;;;;;;;;;;;1.00;99.90;;;0.05;100.00;100139.06;4985856;28;1398;-68
2023/12/17 02:03:49;;;;;;;;;;;1.00;99.90;;;0.15;100.00;100130.94;5019082;28;1331;-68
2023/12/17 02:06:16;;;;;;;;;;;1.10;99.90;;;0.05;100.00;100133.94;4985480;28;1402;-68
2023/12/17 02:08:43;;;;;;;;;;;1.10;99.90;;;0.03;100.00;100132.13;4985945;28;1645;-68
2023/12/17 02:11:10;;;;;;;;;;;1.10;99.90;;;-0.26;100.00;100121.59;5016745;28;1432;-68
2023/12/17 02:13:37;;;;;;;;;;;1.00;99.90;;;-0.19;100.00;100123.59;5018407;28;1291;-68
2023/12/17 02:16:04;;;;;;;;;;;0.90;99.90;;;-0.42;100.00;100104.78;4986677;28;1446;-68
2023/12/17 02:18:31;;;;;;;;;;;0.90;99.90;;;-0.48;100.00;100102.84;4984517;28;1926;-68
2023/12/17 02:20:58;;;;;;;;;;;0.90;99.90;;;-0.59;100.00;100108.28;5017150;28;1444;-68
2023/12/17 02:23:25;;;;;;;;;;;0.70;99.90;;;-0.44;100.00;100102.16;4983399;28;1433;-68
2023/12/17 02:25:52;;;;;;;;;;;0.60;99.90;;;-0.55;100.00;100100.81;5017416;28;1467;-68
2023/12/17 02:28:19;;;;;;;;;;;0.50;99.90;;;-0.54;100.00;100102.59;4987737;28;1148;-68
2023/12/17 02:30:46;;;;;;;;;;;0.40;99.90;;;-0.70;100.00;100111.25;4985410;28;1742;-68
2023/12/17 02:33:13;;;;;;;;;;;0.40;99.90;;;-0.41;100.00;100106.53;4985353;28;1363;-68
2023/12/17 02:35:40;;;;;;;;;;;0.40;99.90;;;-0.70;100.00;100105.28;4981660;28;1459;-67
2023/12/17 02:38:07;;;;;;;;;;;0.50;99.90;;;-0.79;100.00;100100.66;4985742;28;1237;-68
2023/12/17 02:40:33;;;;;;;;;;;0.40;99.90;;;-0.83;100.00;100096.22;4986057;28;1998;-68
2023/12/17 02:43:00;;;;;;;;;;;0.30;99.90;;;-0.79;100.00;100098.13;4984414;28;1437;-68
2023/12/17 02:45:27;;;;;;;;;;;0.30;99.90;;;-0.75;100.00;100102.53;4983075;28;1444;-68
2023/12/17 02:47:54;;;;;;;;;;;0.40;99.90;;;-0.58;100.00;100092.19;5016417;28;1431;-68
2023/12/17 02:50:21;;;;;;;;;;;0.40;99.90;;;-0.52;100.00;100083.13;4983773;28;1237;-68
2023/12/17 02:52:48;;;;;;;;;;;0.50;99.90;;;-0.52;100.00;100092.44;4985415;28;1392;-68
2023/12/17 02:55:14;;;;;;;;;;;0.60;99.90;;;-0.32;100.00;100089.06;4985290;28;1455;-67
2023/12/17 02:57:42;;;;;;;;;;;0.70;99.90;;;-0.23;100.00;100081.78;4984279;28;1397;-68
2023/12/17 03:00:09;;;;;;;;;;;0.80;99.90;;;-0.16;100.00;100075.22;4985954;28;1989;-67
2023/12/17 03:02:36;;;;;;;;;;;0.80;99.90;;;-0.23;100.00;100063.00;5018376;28;1399;-68
2023/12/17 03:05:03;;;;;;;;;;;0.80;99.90;;;-0.12;100.00;100064.31;4984528;28;1370;-68
2023/12/17 03:07:30;;;;;;;;;;;0.80;99.90;;;-0.23;100.00;100058.78;4985275;28;1150;-68
2023/12/17 03:09:57;;;;;;;;;;;0.80;99.90;;;-0.13;100.00;100042.16;4986170;28;1161;-68
2023/12/17 03:12:24;;;;;;;;;;;0.80;99.90;;;-0.23;100.00;100046.03;4986049;28;1269;-68
2023/12/17 03:14:51;;;;;;;;;;;0.90;99.90;;;-0.24;100.00;100031.50;4987531;28;1401;-68
2023/12/17 03:17:18;;;;;;;;;;;0.90;99.90;;;-0.33;100.00;100045.59;4985902;28;1371;-68
2023/12/17 03:19:44;;;;;;;;;;;0.80;99.90;;;-0.26;100.00;100047.56;4983686;28;1986;-67
2023/12/17 03:22:11;;;;;;;;;;;0.80;99.90;;;-0.25;100.00;100046.75;4985127;28;1451;-68
2023/12/17 03:24:38;;;;;;;;;;;0.90;99.90;;;-0.30;100.00;100058.47;4985333;28;1925;-67
2023/12/17 03:27:05;;;;;;;;;;;0.90;99.90;;;-0.27;100.00;100058.63;4985554;28;1113;-67
2023/12/17 03:29:32;;;;;;;;;;;0.80;99.90;;;-0.22;100.00;100046.91;4988138;28;1241;-67
2023/12/17 03:32:00;;;;;;;;;;;0.80;99.90;;;-0.11;100.00;100039.69;4987145;28;1367;-68
2023/12/17 03:34:26;;;;;;;;;;;0.80;99.90;;;-0.59;100.00;100041.97;4991628;28;1026;-68
2023/12/17 03:36:54;;;;;;;;;;;0.70;99.90;;;-0.56;100.00;100044.66;4990199;28;1284;-68
2023/12/17 03:39:20;;;;;;;;;;;0.50;99.90;;;-0.65;100.00;100045.13;4988469;28;1914;-68
2023/12/17 03:41:47;;;;;;;;;;;0.50;99.90;;;-0.49;100.00;100046.66;4990693;28;1308;-68
2023/12/17 03:44:14;;;;;;;;;;;0.50;99.90;;;-0.91;100.00;100038.94;4990136;28;1445;-68
2023/12/17 03:46:41;;;;;;;;;;;0.40;99.90;;;-0.89;100.00;100044.97;4989802;28;1434;-68
2023/12/17 03:49:08;;;;;;;;;;;0.30;99.90;;;-0.96;100.00;100048.06;4988222;28;1062;-68
2023/12/17 03:51:35;;;;;;;;;;;0.10;99.90;;;-0.96;100.00;100043.81;4988522;28;1382;-68
2023/12/17 03:54:02;;;;;;;;;;;0.10;99.90;;;-0.89;100.00;100037.31;4989372;28;1368;-67
2023/12/17 03:56:29;;;;;;;;;;;0.10;99.90;;;-0.92;100.00;100043.16;4989588;28;1114;-68
2023/12/17 03:58:56;;;;;;;;;;;0.00;99.90;;;-1.08;100.00;100036.53;4989670;28;1915;-68
2023/12/17 04:01:23;;;;;;;;;;;0.00;99.90;;;-1.07;100.00;100038.28;4985682;28;1386;-68
2023/12/17 04:03:50;;;;;;;;;;;0.10;99.90;;;-1.11;100.00;100036.41;4990137;28;1720;-68
2023/12/17 04:06:17;;;;;;;;;;;-0.10;99.90;;;-1.18;100.00;100036.94;4988717;28;1488;-67
2023/12/17 04:08:45;;;;;;;;;;;-0.10;99.90;;;-1.01;100.00;100031.69;4990083;28;1469;-68
2023/12/17 04:11:12;;;;;;;;;;;-0.10;99.90;;;-0.98;100.00;100027.63;4987830;28;1479;-68
2023/12/17 04:13:39;;;;;;;;;;;-0.10;99.90;;;-0.89;100.00;100027.13;4989185;28;1394;-67
2023/12/17 04:16:06;;;;;;;;;;;0.00;99.90;;;-0.82;100.00;100030.78;5016528;28;1424;-68
2023/12/17 04:18:32;;;;;;;;;;;0.00;99.90;;;-0.73;100.00;100042.28;4987722;28;1335;-67
2023/12/17 04:21:01;;;;;;;;;;;0.10;99.90;;;-0.83;100.00;100027.38;4986802;28;1934;-67
2023/12/17 04:23:28;;;;;;;;;;;0.20;99.90;;;-0.76;100.00;100025.97;4988205;28;1532;-67
2023/12/17 04:25:58;;;;;;;;;;;0.30;99.90;;;-0.65;100.00;100030.69;4986865;28;1511;-67
2023/12/17 04:28:25;;;;;;;;;;;0.40;99.90;;;-0.40;100.00;100030.84;4986137;28;1441;-68
2023/12/17 04:30:52;;;;;;;;;;;0.70;99.90;;;-0.39;100.00;100023.22;5001570;28;1501;-68
2023/12/17 04:33:21;;;;;;;;;;;0.80;99.90;;;-0.22;100.00;100026.47;4971591;28;1573;-69
2023/12/17 04:35:48;;;;;;;;;;;0.90;99.90;;;-0.22;100.00;100031.59;4989554;28;1372;-68
2023/12/17 04:38:16;;;;;;;;;;;1.00;99.90;;;-0.24;100.00;100028.09;4987885;28;1323;-68
2023/12/17 04:40:45;;;;;;;;;;;0.90;99.90;;;-0.26;100.00;100033.13;5018183;28;1902;-68
2023/12/17 04:43:15;;;;;;;;;;;0.90;99.90;;;-0.14;100.00;100037.84;5019119;28;1375;-68
2023/12/17 04:45:42;;;;;;;;;;;0.70;99.90;;;-0.16;100.00;100036.03;4987553;28;1326;-67
2023/12/17 04:48:08;;;;;;;;;;;0.60;99.90;;;-0.40;100.00;100024.06;4988219;28;1314;-67
2023/12/17 04:50:35;;;;;;;;;;;0.60;99.90;;;-0.48;100.00;100027.97;4988897;28;1348;-69
2023/12/17 04:53:02;;;;;;;;;;;0.60;99.90;;;-0.44;100.00;100027.28;4987176;28;1374;-68
2023/12/17 04:55:29;;;;;;;;;;;0.60;99.90;;;-0.55;100.00;100026.84;4988875;28;1315;-68
2023/12/17 04:57:56;;;;;;;;;;;0.60;99.90;;;-0.47;100.00;100017.84;4990767;28;1334;-68
2023/12/17 05:00:23;;;;;;;;;;;0.70;99.90;;;-0.40;100.00;100023.19;5000826;28;1899;-67
2023/12/17 05:02:50;;;;;;;;;;;0.70;99.90;;;-0.34;100.00;100018.31;4988466;28;1407;-68
2023/12/17 05:05:17;;;;;;;;;;;0.70;99.90;;;-0.41;100.00;100014.69;4988541;28;1441;-68
2023/12/17 05:07:45;;;;;;;;;;;0.70;99.90;;;-0.09;100.00;100015.94;4987202;28;1395;-68
2023/12/17 05:10:12;;;;;;;;;;;0.90;99.90;;;0.08;100.00;100014.03;5018343;28;1260;-68
2023/12/17 05:12:39;;;;;;;;;;;1.10;99.90;;;0.20;100.00;100018.72;4986364;28;1457;-68
2023/12/17 05:15:06;;;;;;;;;;;1.10;99.90;;;0.35;100.00;100021.88;4987020;28;1319;-68
2023/12/17 05:17:33;;;;;;;;;;;1.20;99.90;;;0.26;100.00;100029.19;4988313;28;1310;-69
2023/12/17 05:20:00;;;;;;;;;;;1.10;99.90;;;0.24;100.00;100028.25;4987595;28;1903;-68
2023/12/17 05:22:27;;;;;;;;;;;;;;;0.16;100.00;100025.44;5017904;28;1355;-68
2023/12/17 05:24:54;;;;;;;;;;;1.10;99.90;;;0.24;100.00;100027.41;4988137;28;1403;-68
2023/12/17 05:27:21;;;;;;;;;;;1.10;99.90;;;0.21;100.00;100025.59;4982853;28;1386;-68
2023/12/17 05:29:48;;;;;;;;;;;1.10;99.90;;;0.03;100.00;100024.91;4987962;28;1386;-68
2023/12/17 05:32:15;;;;;;;;;;;1.10;99.90;;;0.18;100.00;100028.03;4985042;28;1497;-67
2023/12/17 05:34:42;;;;;;;;;;;1.10;99.90;;;0.15;100.00;100026.22;4986800;28;1483;-68
2023/12/17 05:37:09;;;;;;;;;;;1.20;99.90;;;0.20;100.00;100022.16;4989012;28;1453;-68
2023/12/17 05:39:35;;;;;;;;;;;1.20;99.90;;;0.23;100.00;100026.53;4986764;28;1907;-67
2023/12/17 05:42:03;;;;;;;;;;;1.20;99.90;;;0.17;100.00;100018.63;4988732;28;1385;-68
2023/12/17 05:44:30;;;;;;;;;;;1.30;99.90;;;0.08;100.00;100018.28;4986515;28;1359;-68
2023/12/17 05:46:57;;;;;;;;;;;1.20;99.90;;;0.13;100.00;100012.50;4985470;28;1386;-67
2023/12/17 05:49:23;;;;;;;;;;;1.20;99.90;;;0.08;100.00;100018.28;4987436;28;1443;-68
2023/12/17 05:51:51;;;;;;;;;;;1.30;99.90;;;0.16;100.00;100022.88;4989107;28;1322;-68
2023/12/17 05:54:18;;;;;;;;;;;1.30;99.90;;;0.27;100.00;100020.69;4987769;28;1307;-68
2023/12/17 05:56:45;;;;;;;;;;;1.30;99.90;;;0.32;100.00;100014.09;4985844;28;1712;-68
2023/12/17 05:59:12;;;;;;;;;;;1.30;99.90;;;0.44;100.00;100015.38;4985945;28;1930;-68
2023/12/17 06:01:39;;;;;;;;;;;1.40;99.90;;;0.36;100.00;100018.50;4988732;28;1381;-68
2023/12/17 06:04:09;;;;;;;;;;;1.50;99.90;;;0.26;100.00;100013.88;4967393;28;1427;-69
2023/12/17 06:06:35;;;;;;;;;;;1.40;99.90;;;0.13;100.00;100020.19;4984940;28;1540;-67
2023/12/17 06:09:03;;;;;;;;;;;1.40;99.90;;;0.16;100.00;100012.66;4987405;28;1470;-68
2023/12/17 06:11:30;;;;;;;;;;;1.30;99.90;;;0.19;100.00;100007.66;4985206;28;1414;-69
2023/12/17 06:13:57;;;;;;;;;;;1.30;99.90;;;0.02;100.00;99997.59;4984733;28;1422;-68
2023/12/17 06:16:24;;;;;;;;;;;1.30;99.90;;;0.08;100.00;99998.72;4986251;28;1396;-68
2023/12/17 06:18:52;;;;;;;;;;;1.20;99.90;;;0.22;100.00;99999.22;4969115;28;1490;-68
2023/12/17 06:21:21;;;;;;;;;;;1.20;99.90;;;0.17;100.00;100006.72;4984596;28;2009;-68
2023/12/17 06:23:50;;;;;;;;;;;1.30;99.90;;;0.02;100.00;100005.25;4986649;28;1399;-68
2023/12/17 06:26:19;;;;;;;;;;;1.10;99.90;;;-0.39;100.00;100015.56;4984721;28;1414;-68
2023/12/17 06:28:46;;;;;;;;;;;0.90;99.90;;;-0.51;100.00;100010.00;4970938;28;1062;-68
2023/12/17 06:31:13;;;;;;;;;;;0.70;99.90;;;-0.60;100.00;100015.59;4986456;28;1624;-68
2023/12/17 06:33:40;;;;;;;;;;;0.60;99.90;;;-0.75;100.00;100014.94;4984680;28;1400;-68
2023/12/17 06:36:07;;;;;;;;;;;0.50;99.90;;;-0.60;100.00;100007.94;4986230;28;1296;-68
2023/12/17 06:38:34;;;;;;;;;;;0.40;99.90;;;-0.54;100.00;100014.97;4983939;28;1442;-68
2023/12/17 06:41:03;;;;;;;;;;;0.50;99.90;;;-0.68;100.00;100007.63;4985129;28;1982;-69
2023/12/17 06:43:29;;;;;;;;;;;0.50;99.90;;;-0.66;100.00;100002.59;4984046;28;1418;-69
2023/12/17 06:45:56;;;;;;;;;;;0.60;99.90;;;-0.74;100.00;100011.59;4985042;28;1417;-68
2023/12/17 06:48:23;;;;;;;;;;;0.60;99.90;;;-0.85;100.00;100006.91;4981535;28;1406;-69
2023/12/17 06:50:50;;;;;;;;;;;0.50;99.90;;;-0.89;100.00;100010.16;5017731;28;1383;-68
2023/12/17 06:53:17;;;;;;;;;;;0.40;99.90;;;-0.85;100.00;100006.91;5015994;28;1408;-69
2023/12/17 06:55:44;;;;;;;;;;;0.30;99.90;;;-1.04;100.00;100004.41;4989021;28;1319;-68
2023/12/17 06:58:11;;;;;;;;;;;0.20;99.90;;;-0.93;100.00;99997.22;4985671;28;1128;-68
2023/12/17 07:00:38;;;;;;;;;;;0.10;99.90;;;-1.10;100.00;99999.91;4985276;28;1906;-68
2023/12/17 07:03:05;;;;;;;;;;;0.00;99.90;;;-1.09;100.00;100001.66;5015780;28;1427;-68
2023/12/17 07:05:32;;;;;;;;;;;0.10;99.90;;;-1.05;100.00;99997.53;5019758;28;1350;-68
2023/12/17 07:07:59;;;;;;;;;;;0.20;99.90;;;-0.89;100.00;100001.63;4988580;28;1457;-69
2023/12/17 07:10:26;;;;;;;;;;;0.20;99.90;;;-0.98;100.00;99994.47;4991713;28;1402;-69
2023/12/17 07:12:52;;;;;;;;;;;0.20;99.90;;;-0.86;100.00;100005.19;4989406;28;1395;-68
2023/12/17 07:15:19;;;;;;;;;;;0.30;99.90;;;-0.92;100.00;99998.94;4989333;28;1385;-68
2023/12/17 07:17:47;;;;;;;;;;;0.20;99.90;;;-0.83;100.00;99999.34;4991314;28;1406;-68
2023/12/17 07:20:15;;;;;;;;;;;0.10;99.90;;;-0.94;100.00;99998.00;4987530;28;1911;-68
2023/12/17 07:22:43;;;;;;;;;;;0.10;99.90;;;-0.95;100.00;99994.59;4992267;28;1500;-68
2023/12/17 07:25:10;;;;;;;;;;;0.00;99.90;;;-0.78;100.00;99995.28;4972148;28;1455;-68
2023/12/17 07:27:37;;;;;;;;;;;0.10;99.90;;;-0.57;100.00;100004.63;4990284;28;1410;-68
2023/12/17 07:30:05;;;;;;;;;;;0.30;99.90;;;-0.50;100.00;99998.97;4989478;28;1451;-68
2023/12/17 07:32:33;;;;;;;;;;;0.40;99.90;;;-0.40;100.00;100005.34;4989995;28;1411;-69
2023/12/17 07:35:01;;;;;;;;;;;0.50;99.90;;;-0.50;100.00;100007.50;4991696;28;1418;-68
2023/12/17 07:37:27;;;;;;;;;;;0.50;99.90;;;-0.58;100.00;100006.31;4992927;28;1391;-68
2023/12/17 07:39:55;;;;;;;;;;;0.40;99.90;;;-0.63;100.00;100002.72;4991643;28;1979;-69
2023/12/17 07:42:23;;;;;;;;;;;0.40;99.90;;;-0.59;100.00;100006.25;5000328;28;1443;-68
2023/12/17 07:44:50;;;;;;;;;;;0.50;99.90;;;-0.39;100.00;100005.38;4988554;28;1504;-68
2023/12/17 07:47:18;;;;;;;;;;;0.60;99.90;;;-0.21;100.00;100005.25;5021370;28;1444;-69
2023/12/17 07:49:44;;;;;;;;;;;0.70;99.90;;;-0.29;100.00;100010.06;5017767;28;1364;-68
2023/12/17 07:52:11;;;;;;;;;;;0.80;99.90;;;-0.33;100.00;100009.88;4986902;28;1429;-68
2023/12/17 07:54:38;;;;;;;;;;;0.80;99.90;;;-0.43;100.00;100013.75;4987800;28;1451;-68
2023/12/17 07:57:05;;;;;;;;;;;0.80;99.90;;;-0.53;100.00;100012.47;4986533;28;1360;-68
2023/12/17 07:59:32;;;;;;;;;;;0.70;99.90;;;-0.28;100.00;100009.22;5017128;28;1075;-70
2023/12/17 08:01:59;;;;;;;;;;;0.70;99.90;;;-0.42;100.00;100006.13;5019042;28;1922;-68
2023/12/17 08:04:26;;;;;;;;;;;0.80;99.90;;;-0.39;100.00;100013.03;4987303;28;1470;-67
2023/12/17 08:06:53;;;;;;;;;;;0.80;99.90;;;-0.23;100.00;100012.84;4988637;28;1886;-68
2023/12/17 08:09:20;;;;;;;;;;;0.90;99.90;;;-0.11;100.00;100015.00;4990701;28;1459;-69
2023/12/17 08:11:47;;;;;;;;;;;0.80;99.90;;;-0.11;100.00;100011.59;4987025;28;1382;-69
2023/12/17 08:14:14;;;;;;;;;;;0.70;99.90;;;-0.17;100.00;100016.44;4988330;28;1339;-67
2023/12/17 08:16:43;;;;;;;;;;;0.70;99.90;;;-0.22;100.00;100013.72;4989082;28;1402;-68
2023/12/17 08:19:10;;;;;;;;;;;0.60;99.90;;;-0.29;100.00;100024.50;4990844;28;1283;-69
2023/12/17 08:21:37;;;;;;;;;;;0.60;99.90;;;-0.16;100.00;100021.63;4988071;28;1919;-68
2023/12/17 08:24:04;;;;;;;;;;;0.50;99.90;;;-0.11;100.00;100019.25;4986255;28;1418;-67
2023/12/17 08:26:31;;;;;;;;;;;0.50;99.90;;;-0.30;100.00;100013.38;4983912;28;1370;-69
2023/12/17 08:28:58;;;;;;;;;;;0.60;99.90;;;-0.10;100.00;100016.75;4988803;28;1820;-69
2023/12/17 08:31:25;;;;;;;;;;;0.60;99.90;;;-0.17;100.00;100012.22;4986873;28;1328;-68
2023/12/17 08:33:52;;;;;;;;;;;0.60;99.90;;;-0.20;100.00;100021.44;4988470;28;1454;-68
2023/12/17 08:36:22;;;;;;;;;;;0.70;99.90;;;-0.11;100.00;100021.81;4986722;28;1359;-68
2023/12/17 08:38:49;;;;;;;;;;;0.80;99.90;;;0.06;100.00;100017.34;4986068;28;1355;-68
2023/12/17 08:41:16;;;;;;;;;;;0.80;99.90;;;0.27;100.00;100014.72;4986269;28;1926;-68
2023/12/17 08:43:45;;;;;;;;;;;0.80;99.90;;;0.32;100.00;100023.44;4972228;28;1368;-68
2023/12/17 08:46:12;;;;;;;;;;;0.80;99.90;;;0.40;100.00;100020.34;4987981;28;1463;-68
2023/12/17 08:48:38;;;;;;;;;;;1.00;99.90;;;0.64;100.00;100027.19;4988543;28;1481;-69
2023/12/17 08:51:06;;;;;;;;;;;1.20;99.90;;;0.77;100.00;100020.81;4983980;28;1538;-68
2023/12/17 08:53:33;;;;;;;;;;;1.30;99.90;;;0.93;100.00;100022.25;4986694;28;2008;-69
2023/12/17 08:56:03;;;;;;;;;;;1.40;99.90;;;0.91;100.00;100022.19;4987550;28;1352;-68
2023/12/17 08:58:30;;;;;;;;;;;1.50;99.90;;;1.21;100.00;100019.84;4987394;28;1468;-68
2023/12/17 09:00:56;;;;;;;;;;;1.60;99.90;;;1.16;100.00;100026.47;4997712;28;1930;-68
2023/12/17 09:03:23;;;;;;;;;;;1.70;99.90;;;1.29;100.00;100024.34;4988944;28;1481;-68
2023/12/17 09:05:50;;;;;;;;;;;1.90;99.90;;;1.49;100.00;100025.00;4989247;28;1449;-68
2023/12/17 09:08:17;;;;;;;;;;;2.10;99.90;;;1.55;100.00;100026.09;4988061;28;1517;-69
2023/12/17 09:10:44;;;;;;;;;;;2.20;99.90;;;1.74;100.00;100031.81;4988523;28;1407;-69
2023/12/17 09:13:11;;;;;;;;;;;2.40;99.90;;;1.91;100.00;100029.75;4988689;28;1399;-68
2023/12/17 09:15:38;;;;;;;;;;;2.60;99.90;;;2.03;100.00;100025.00;4986565;28;1426;-68
2023/12/17 09:18:08;;;;;;;;;;;2.70;99.90;;;2.15;100.00;100035.66;4985432;28;1370;-68
2023/12/17 09:20:35;;;;;;;;;;;2.80;99.90;;;2.23;100.00;100018.81;4981673;28;1986;-69
2023/12/17 09:23:02;;;;;;;;;;;2.90;99.90;;;2.23;100.00;100018.81;4986022;28;1585;-68
2023/12/17 09:25:29;;;;;;;;;;;3.00;99.90;;;2.47;100.00;100023.78;5019401;28;1337;-69
2023/12/17 09:27:56;;;;;;;;;;;3.00;99.90;;;2.50;100.00;100020.44;4986198;28;1375;-68
2023/12/17 09:30:23;;;;;;;;;;;3.10;99.90;;;2.36;100.00;100024.31;4986936;28;1415;-68
2023/12/17 09:32:50;;;;;;;;;;;3.10;99.90;;;2.45;100.00;100022.03;5020766;28;1563;-69
2023/12/17 09:35:19;;;;;;;;;;;3.20;99.90;;;2.55;100.00;100021.44;4989438;28;1136;-68
2023/12/17 09:37:47;;;;;;;;;;;3.30;99.90;;;2.67;100.00;100026.94;4988356;28;1324;-69
2023/12/17 09:40:15;;;;;;;;;;;3.30;99.90;;;2.61;100.00;100025.91;4987056;28;1970;-68
2023/12/17 09:42:43;;;;;;;;;;;3.40;99.90;;;2.68;100.00;100025.25;4986806;28;1426;-69
2023/12/17 09:45:14;;;;;;;;;;;;;;;2.76;100.00;100017.75;4986792;28;1380;-68
2023/12/17 09:47:42;;;;;;;;;;;3.60;99.90;;;2.83;100.00;100014.53;4986781;28;1418;-69
2023/12/17 09:50:10;;;;;;;;;;;3.60;99.90;;;2.84;100.00;100012.00;4983750;28;1354;-69
2023/12/17 09:52:42;;;;;;;;;;;3.60;99.90;;;2.89;100.00;100004.44;4987096;28;1450;-69
2023/12/17 09:55:13;;;;;;;;;;;3.70;99.90;;;3.07;100.00;100010.06;5012541;28;1459;-69
2023/12/17 09:57:40;;;;;;;;;;;3.70;99.90;;;3.16;100.00;99999.19;5020111;28;1535;-68
2023/12/17 10:00:11;;;;;;;;;;;3.90;99.90;;;3.26;100.00;99997.72;4983992;28;1407;-68
2023/12/17 10:02:41;;;;;;;;;;;4.00;99.90;;;3.44;100.00;100002.44;5014504;28;1401;-69
2023/12/17 10:05:08;;;;;;;;;;;4.00;99.90;;;3.44;100.00;99997.31;4987714;28;1413;-70
2023/12/17 10:07:38;;;;;;;;;;;4.10;99.90;;;3.76;100.00;99996.41;4988320;28;1738;-69
2023/12/17 10:10:07;;;;;;;;;;;4.20;99.90;;;3.58;100.00;99988.25;4985424;28;1454;-68
2023/12/17 10:12:35;;;;;;;;;;;4.20;99.90;;;3.67;100.00;99988.47;5016751;28;1445;-69
2023/12/17 10:15:03;;;;;;;;;;;4.30;99.90;;;3.84;100.00;99990.56;4984968;28;1367;-68
2023/12/17 10:17:30;;;;;;;;;;;4.40;99.90;;;3.82;100.00;99987.97;4989879;28;1493;-69
2023/12/17 10:19:57;;;;;;;;;;;4.50;99.90;;;3.88;100.00;99982.13;4986314;28;1382;-69
2023/12/17 10:22:24;;;;;;;;;;;4.60;99.90;;;3.96;100.00;99981.44;4996238;28;1985;-70
2023/12/17 10:24:51;;;;;;;;;;;4.70;99.90;;;4.03;100.00;99985.00;4986750;28;1439;-68
2023/12/17 10:27:19;;;;;;;;;;;4.80;99.90;;;4.22;100.00;99978.59;4987643;28;1426;-69
2023/12/17 10:29:51;;;;;;;;;;;4.80;99.90;;;4.32;100.00;99984.78;4984514;28;1696;-69
2023/12/17 10:32:23;;;;;;;;;;;4.90;99.90;;;4.43;100.00;99973.03;5013865;28;1451;-69
2023/12/17 10:34:51;;;;;;;;;;;5.00;99.90;;;4.35;100.00;99966.84;4986229;28;1383;-69
2023/12/17 10:37:19;;;;;;;;;;;5.10;99.90;;;4.52;100.00;99968.06;4986676;28;1462;-69
2023/12/17 10:39:49;;;;;;;;;;;5.10;99.90;;;4.73;100.00;99970.19;4983687;28;1437;-70
2023/12/17 10:42:20;;;;;;;;;;;5.20;99.90;;;4.66;100.00;99957.19;4983313;28;1914;-69
2023/12/17 10:44:48;;;;;;;;;;;5.20;99.90;;;4.77;100.00;99955.69;4985177;28;1369;-69
2023/12/17 10:47:18;;;;;;;;;;;5.30;99.90;;;4.82;100.00;99951.47;4996937;28;1487;-69
2023/12/17 10:49:46;;;;;;;;;;;5.40;99.90;;;4.85;100.00;99943.81;4985615;28;1536;-68
2023/12/17 10:52:13;;;;;;;;;;;5.40;99.90;;;4.87;100.00;99931.84;5000373;28;1462;-69
2023/12/17 10:54:40;;;;;;;;;;;5.50;99.90;;;4.86;100.00;99932.69;4981379;28;1395;-69
2023/12/17 10:57:11;;;;;;;;;;;5.50;99.90;;;5.00;100.00;99931.22;4967789;28;1426;-69
2023/12/17 10:59:40;;;;;;;;;;;5.60;99.90;;;5.16;100.00;99924.63;4984754;28;1678;-68
2023/12/17 11:02:08;;;;;;;;;;;5.70;99.90;;;5.14;100.00;99918.59;4983781;28;1902;-69
2023/12/17 11:04:34;;;;;;;;;;;5.70;99.90;;;5.27;100.00;99918.78;4984168;28;1776;-69
2023/12/17 11:07:02;;;;;;;;;;;5.80;99.90;;;5.28;100.00;99910.22;5014945;28;1398;-69
2023/12/17 11:09:29;;;;;;;;;;;5.80;99.90;;;5.27;100.00;99898.19;4985990;28;1367;-69
2023/12/17 11:11:56;;;;;;;;;;;5.90;99.90;;;5.17;100.00;99890.31;4983531;28;1663;-69
2023/12/17 11:14:23;;;;;;;;;;;5.90;99.90;;;5.52;100.00;99882.28;4983263;28;1576;-69
2023/12/17 11:16:52;;;;;;;;;;;6.00;99.90;;;5.55;100.00;99869.44;5014962;28;1462;-69
2023/12/17 11:19:18;;;;;;;;;;;6.00;99.90;;;5.60;100.00;99872.06;4982408;28;1464;-68
2023/12/17 11:21:46;;;;;;;;;;;6.20;99.90;;;5.66;100.00;99861.88;4967376;28;1903;-69